Time;durP1;ratioP1;P1;durP2;ratioP2;P2;SDS_P1;SDS_P2;PMS_P1;PMS_P2;Temp;Humidity;BMP_temperature;BMP_pressure;BME280_temperature;BME280_humidity;BME280_pressure;Samples;Min_cycle;Max_cycle;Signal;HPM_P1;HPM_P2
2023/05/25 00:01:12;;;;;;;4.05;1.63;;;20.30;61.70;;;;;;5148859;27;45511;-72
2023/05/25 00:03:41;;;;;;;5.22;1.45;;;20.30;61.70;;;;;;5149607;27;46549;-72
2023/05/25 00:06:09;;;;;;;3.60;1.63;;;20.30;61.70;;;;;;5159510;27;45479;-71
2023/05/25 00:08:35;;;;;;;3.08;1.48;;;20.30;61.80;;;;;;5164669;27;45503;-71
2023/05/25 00:11:02;;;;;;;3.65;1.80;;;20.20;61.80;;;;;;5156144;27;45522;-72
2023/05/25 00:13:29;;;;;;;2.95;1.60;;;20.20;61.70;;;;;;5158788;27;46684;-72
2023/05/25 00:15:56;;;;;;;6.15;1.63;;;20.30;61.90;;;;;;5157787;27;45364;-71
2023/05/25 00:18:23;;;;;;;3.70;1.67;;;20.30;62.00;;;;;;5149409;27;45490;-71
2023/05/25 00:20:52;;;;;;;5.22;1.77;;;20.30;62.00;;;;;;5153782;27;45429;-71
2023/05/25 00:23:19;;;;;;;4.05;1.50;;;20.20;61.90;;;;;;5153622;27;48159;-72
2023/05/25 00:25:46;;;;;;;6.03;2.45;;;20.30;62.10;;;;;;5151394;27;45358;-71
2023/05/25 00:28:13;;;;;;;2.65;1.55;;;20.30;62.00;;;;;;5158093;27;45235;-71
2023/05/25 00:30:40;;;;;;;4.25;1.77;;;20.30;62.10;;;;;;5148675;27;45460;-71
2023/05/25 00:33:09;;;;;;;3.47;1.50;;;20.30;62.10;;;;;;5148083;27;46589;-71
2023/05/25 00:35:35;;;;;;;4.82;1.38;;;20.30;61.90;;;;;;5146481;27;45572;-72
2023/05/25 00:38:04;;;;;;;4.80;1.35;;;20.30;62.00;;;;;;5159218;27;45337;-71
2023/05/25 00:40:31;;;;;;;2.92;1.55;;;20.20;61.90;;;;;;5150826;27;45700;-71
2023/05/25 00:42:59;;;;;;;3.80;1.75;;;20.30;61.70;;;;;;5145766;27;47035;-72
2023/05/25 00:45:26;;;;;;;3.38;1.42;;;20.20;61.60;;;;;;5148598;27;45798;-71
2023/05/25 00:47:54;;;;;;;5.80;1.73;;;20.20;61.50;;;;;;5150666;27;45471;-71
2023/05/25 00:50:31;;;;;;;5.22;1.67;;;20.20;61.50;;;;;;5148552;27;45545;-71
2023/05/25 00:52:58;;;;;;;3.72;1.83;;;20.20;61.70;;;;;;5144204;27;47103;-71
2023/05/25 00:55:29;;;;;;;2.50;1.40;;;20.30;61.90;;;;;;5149784;27;45509;-71
2023/05/25 00:57:59;;;;;;;3.42;1.63;;;20.20;61.80;;;;;;5148207;27;45517;-71
2023/05/25 01:00:29;;;;;;;2.85;1.63;;;20.30;61.90;;;;;;5145945;27;45302;-71
2023/05/25 01:02:58;;;;;;;3.95;1.40;;;20.30;61.90;;;;;;5147848;27;46518;-71
2023/05/25 01:05:28;;;;;;;3.33;1.50;;;20.30;61.90;;;;;;5152705;27;45852;-71
2023/05/25 01:07:57;;;;;;;3.22;1.58;;;20.20;61.70;;;;;;5155483;27;45438;-71
2023/05/25 01:10:26;;;;;;;3.53;1.60;;;20.30;61.80;;;;;;5160471;27;45590;-70
2023/05/25 01:12:55;;;;;;;4.00;1.70;;;20.30;61.80;;;;;;5158455;27;48533;-73
2023/05/25 01:15:22;;;;;;;2.15;1.50;;;20.20;61.70;;;;;;5153226;27;45548;-70
2023/05/25 01:17:52;;;;;;;5.03;1.70;;;20.20;61.70;;;;;;5149002;27;45548;-72
2023/05/25 01:20:19;;;;;;;4.60;1.88;;;20.20;61.70;;;;;;5152944;27;45364;-71
2023/05/25 01:22:53;;;;;;;4.00;1.70;;;20.20;61.70;;;;;;5156451;27;48309;-70
2023/05/25 01:25:25;;;;;;;4.32;1.63;;;20.20;61.80;;;;;;5153930;27;46004;-72
2023/05/25 01:27:55;;;;;;;3.60;1.80;;;20.20;61.90;;;;;;5157284;27;45422;-71
2023/05/25 01:30:26;;;;;;;2.90;1.45;;;20.20;61.90;;;;;;5158311;27;45538;-71
2023/05/25 01:32:54;;;;;;;3.78;1.50;;;20.20;62.00;;;;;;5155605;27;45714;-71
2023/05/25 01:35:21;;;;;;;3.22;1.60;;;20.20;63.10;;;;;;5147048;27;45860;-71
2023/05/25 01:37:51;;;;;;;4.40;1.63;;;20.20;62.00;;;;;;5147859;27;45430;-71
2023/05/25 01:40:18;;;;;;;4.18;1.70;;;20.30;62.10;;;;;;5151290;27;45347;-71
2023/05/25 01:42:45;;;;;;;3.78;1.60;;;20.20;61.80;;;;;;5148586;27;48270;-71
2023/05/25 01:45:14;;;;;;;6.05;2.00;;;20.20;61.70;;;;;;5149450;27;45457;-70
2023/05/25 01:47:48;;;;;;;3.42;1.60;;;20.20;61.70;;;;;;5147264;27;45500;-72
2023/05/25 01:50:20;;;;;;;3.70;1.50;;;20.20;61.50;;;;;;5148269;27;45712;-72
2023/05/25 01:52:56;;;;;;;3.53;1.77;;;20.20;61.20;;;;;;5146653;27;46375;-71
2023/05/25 01:55:26;;;;;;;3.20;1.55;;;20.20;60.80;;;;;;5148660;27;45530;-71
2023/05/25 01:57:57;;;;;;;3.72;1.60;;;20.20;60.60;;;;;;5148535;27;45695;-71
2023/05/25 02:00:26;;;;;;;3.17;1.80;;;20.10;60.40;;;;;;5154539;27;45397;-71
2023/05/25 02:02:53;;;;;;;4.50;2.33;;;20.20;60.50;;;;;;5158653;27;47486;-71
2023/05/25 02:05:20;;;;;;;3.60;1.77;;;20.20;60.80;;;;;;5153241;27;45854;-71
2023/05/25 02:07:47;;;;;;;2.92;1.58;;;20.20;61.10;;;;;;5159519;27;45589;-71
2023/05/25 02:10:15;;;;;;;4.70;1.88;;;20.20;61.20;;;;;;5148536;27;45302;-70
2023/05/25 02:12:42;;;;;;;3.17;1.70;;;20.20;61.30;;;;;;5150164;27;46863;-71
2023/05/25 02:15:10;;;;;;;4.95;1.55;;;20.20;61.40;;;;;;5152749;27;45449;-71
2023/05/25 02:17:37;;;;;;;3.05;1.70;;;20.20;61.40;;;;;;5160595;27;45835;-71
2023/05/25 02:20:05;;;;;;;2.83;1.40;;;20.20;61.40;;;;;;5162175;27;45575;-73
2023/05/25 02:22:32;;;;;;;2.85;1.23;;;20.20;61.40;;;;;;5166009;27;47038;-70
2023/05/25 02:24:59;;;;;;;3.90;1.50;;;20.20;61.40;;;;;;5159203;27;45314;-71
2023/05/25 02:27:27;;;;;;;3.92;1.60;;;20.20;61.50;;;;;;5161298;27;45389;-70
2023/05/25 02:29:53;;;;;;;2.88;1.63;;;20.20;61.50;;;;;;5157997;27;45554;-71
2023/05/25 02:32:21;;;;;;;8.30;2.15;;;20.20;61.50;;;;;;5152520;27;47000;-71
2023/05/25 02:34:47;;;;;;;4.40;1.60;;;20.20;61.60;;;;;;5152474;27;45401;-70
2023/05/25 02:37:14;;;;;;;3.70;1.73;;;20.20;61.70;;;;;;5157177;27;45363;-70
2023/05/25 02:39:41;;;;;;;2.50;1.35;;;20.20;61.70;;;;;;5157588;27;45373;-73
2023/05/25 02:42:08;;;;;;;5.18;1.80;;;20.20;61.70;;;;;;5153304;27;46302;-71
2023/05/25 02:44:36;;;;;;;5.20;1.45;;;20.20;61.70;;;;;;5161640;27;45397;-70
2023/05/25 02:47:03;;;;;;;2.85;1.42;;;20.20;61.80;;;;;;5157285;27;45414;-71
2023/05/25 02:49:29;;;;;;;3.05;1.50;;;20.20;61.80;;;;;;5152907;27;45411;-71
2023/05/25 02:51:56;;;;;;;3.72;1.65;;;20.30;61.80;;;;;;5146103;27;48662;-71
2023/05/25 02:54:23;;;;;;;2.90;1.45;;;20.20;61.70;;;;;;5147382;27;45392;-70
2023/05/25 02:56:50;;;;;;;3.30;1.48;;;20.20;61.60;;;;;;5157584;27;45365;-72
2023/05/25 02:59:17;;;;;;;4.82;1.30;;;20.20;61.70;;;;;;5156924;27;45479;-70
2023/05/25 03:01:45;;;;;;;3.00;1.50;;;20.20;61.60;;;;;;5154561;27;45409;-71
2023/05/25 03:04:12;;;;;;;3.72;1.65;;;20.20;61.60;;;;;;5156983;27;45294;-71
2023/05/25 03:06:38;;;;;;;3.47;1.58;;;20.20;61.40;;;;;;5146024;27;45389;-70
2023/05/25 03:09:06;;;;;;;2.72;1.40;;;20.20;61.50;;;;;;5153413;27;45313;-71
2023/05/25 03:11:32;;;;;;;3.80;1.83;;;20.20;61.50;;;;;;5150593;27;47345;-71
2023/05/25 03:13:59;;;;;;;3.75;1.75;;;20.20;61.50;;;;;;5156021;27;45332;-70
2023/05/25 03:16:26;;;;;;;1.33;1.13;;;20.20;61.60;;;;;;5156589;27;45254;-70
2023/05/25 03:18:54;;;;;;;4.50;2.05;;;20.20;61.70;;;;;;5148221;27;45406;-70
2023/05/25 03:21:22;;;;;;;3.10;1.63;;;20.20;61.70;;;;;;5158294;27;45434;-71
2023/05/25 03:23:49;;;;;;;3.58;1.63;;;20.20;61.70;;;;;;5150468;27;45369;-71
2023/05/25 03:26:16;;;;;;;4.03;1.50;;;20.20;61.60;;;;;;5147109;27;45579;-71
2023/05/25 03:28:43;;;;;;;3.85;1.80;;;20.20;61.50;;;;;;5157061;27;45283;-70
2023/05/25 03:31:10;;;;;;;4.35;1.42;;;20.20;61.40;;;;;;5156467;27;46429;-71
2023/05/25 03:33:37;;;;;;;3.08;1.38;;;20.20;61.50;;;;;;5145553;27;45448;-70
2023/05/25 03:36:08;;;;;;;3.15;1.88;;;20.20;61.40;;;;;;5147189;27;45474;-72
2023/05/25 03:38:36;;;;;;;4.30;1.90;;;20.20;61.40;;;;;;5154337;27;45424;-71
2023/05/25 03:41:03;;;;;;;2.13;1.38;;;20.20;61.40;;;;;;5155283;27;48006;-71
2023/05/25 03:43:30;;;;;;;3.67;1.77;;;20.20;61.40;;;;;;5145150;27;45544;-72
2023/05/25 03:45:57;;;;;;;5.57;1.55;;;20.20;61.40;;;;;;5144456;27;45477;-72
2023/05/25 03:48:24;;;;;;;3.15;1.50;;;20.20;61.60;;;;;;5150684;27;45373;-71
2023/05/25 03:50:51;;;;;;;3.38;1.80;;;20.20;61.50;;;;;;5148376;27;48345;-71
2023/05/25 03:53:19;;;;;;;3.95;1.80;;;20.10;61.50;;;;;;5156803;27;45357;-70
2023/05/25 03:55:46;;;;;;;2.67;1.58;;;20.10;61.50;;;;;;5145099;27;45390;-71
2023/05/25 03:58:13;;;;;;;3.60;1.70;;;20.10;61.60;;;;;;5147135;27;45591;-70
2023/05/25 04:00:41;;;;;;;3.22;1.40;;;20.10;61.60;;;;;;5157103;27;47643;-71
2023/05/25 04:03:09;;;;;;;4.95;1.88;;;20.10;61.60;;;;;;5163549;27;45565;-70
2023/05/25 04:05:37;;;;;;;3.03;1.55;;;20.10;61.50;;;;;;5158172;27;45421;-71
2023/05/25 04:08:05;;;;;;;3.58;1.80;;;20.10;61.60;;;;;;5155389;27;45299;-71
2023/05/25 04:10:34;;;;;;;3.00;1.70;;;20.20;61.70;;;;;;5158318;27;45455;-71
2023/05/25 04:13:00;;;;;;;3.28;1.58;;;20.10;61.70;;;;;;5151731;27;45647;-71
2023/05/25 04:15:27;;;;;;;3.22;1.50;;;20.10;61.70;;;;;;5149622;27;45528;-70
2023/05/25 04:17:54;;;;;;;3.25;1.80;;;20.10;61.60;;;;;;5154942;27;45671;-71
2023/05/25 04:20:21;;;;;;;3.83;1.80;;;20.10;61.70;;;;;;5158801;27;47979;-71
2023/05/25 04:22:48;;;;;;;5.00;1.80;;;20.10;61.70;;;;;;5154562;27;45541;-71
2023/05/25 04:25:15;;;;;;;3.88;1.40;;;20.20;61.90;;;;;;5162927;27;45451;-71
2023/05/25 04:27:45;;;;;;;5.50;2.00;;;20.10;61.80;;;;;;5154612;27;45298;-71
2023/05/25 04:30:12;;;;;;;3.53;1.88;;;20.10;61.90;;;;;;5152688;27;48019;-71
2023/05/25 04:32:39;;;;;;;2.63;1.60;;;20.10;61.70;;;;;;5161257;27;45801;-73
2023/05/25 04:35:07;;;;;;;2.53;1.77;;;20.20;61.70;;;;;;5154108;27;45395;-73
2023/05/25 04:37:35;;;;;;;6.10;1.88;;;20.10;61.60;;;;;;5153235;27;45510;-72
2023/05/25 04:40:09;;;;;;;3.25;1.55;;;20.20;61.80;;;;;;5164494;27;45717;-73
2023/05/25 04:42:38;;;;;;;4.15;1.70;;;20.10;61.70;;;;;;5158264;27;45413;-72
2023/05/25 04:45:09;;;;;;;4.38;1.85;;;20.20;61.80;;;;;;5153108;27;45422;-72
2023/05/25 04:47:36;;;;;;;3.42;1.60;;;20.20;61.80;;;;;;5162870;27;45368;-71
2023/05/25 04:50:03;;;;;;;4.93;1.73;;;20.20;61.80;;;;;;5149518;27;47578;-71
2023/05/25 04:52:29;;;;;;;3.10;1.60;;;20.10;61.70;;;;;;5152191;27;45268;-72
2023/05/25 04:54:56;;;;;;;4.00;1.77;;;20.20;61.80;;;;;;5153358;27;45441;-71
2023/05/25 04:57:23;;;;;;;3.30;1.77;;;20.10;61.70;;;;;;5149752;27;45472;-73
2023/05/25 04:59:50;;;;;;;3.75;2.28;;;20.20;61.80;;;;;;5152482;27;47963;-71
2023/05/25 05:02:18;;;;;;;3.17;1.40;;;20.20;61.90;;;;;;5153705;27;45392;-71
2023/05/25 05:04:44;;;;;;;1.88;1.33;;;20.10;61.90;;;;;;5155943;27;45475;-71
2023/05/25 05:07:11;;;;;;;5.18;1.50;;;20.10;62.90;;;;;;5158968;27;45414;-71
2023/05/25 05:09:38;;;;;;;4.45;1.65;;;20.10;61.90;;;;;;5156812;27;46348;-71
2023/05/25 05:12:06;;;;;;;3.67;1.85;;;20.10;61.90;;;;;;5157353;27;45354;-71
2023/05/25 05:14:32;;;;;;;4.50;2.10;;;20.10;61.90;;;;;;5157409;27;45458;-71
2023/05/25 05:16:59;;;;;;;4.38;1.52;;;20.20;62.00;;;;;;5161045;27;45527;-71
2023/05/25 05:19:28;;;;;;;3.13;1.73;;;20.10;61.90;;;;;;5163042;27;47048;-71
2023/05/25 05:21:55;;;;;;;4.45;1.60;;;20.10;61.90;;;;;;5154037;27;45368;-71
2023/05/25 05:24:22;;;;;;;3.83;1.77;;;20.10;61.90;;;;;;5159634;27;45382;-71
2023/05/25 05:26:48;;;;;;;5.15;1.75;;;20.10;61.90;;;;;;5159139;27;45492;-73
2023/05/25 05:29:15;;;;;;;2.92;1.50;;;20.10;62.10;;;;;;5168686;27;47956;-73
2023/05/25 05:31:42;;;;;;;3.20;1.77;;;20.10;62.20;;;;;;5166520;27;45332;-72
2023/05/25 05:34:09;;;;;;;3.80;1.58;;;20.10;62.20;;;;;;5160603;27;45341;-72
2023/05/25 05:36:37;;;;;;;4.35;1.60;;;20.20;62.30;;;;;;5159544;27;45591;-72
2023/05/25 05:39:04;;;;;;;5.53;1.80;;;20.10;62.20;;;;;;5164026;27;47211;-73
2023/05/25 05:41:31;;;;;;;3.85;1.60;;;20.10;62.20;;;;;;5160688;27;45364;-72
2023/05/25 05:43:57;;;;;;;2.45;1.65;;;20.10;62.30;;;;;;5151331;27;45535;-72
2023/05/25 05:46:24;;;;;;;3.65;1.55;;;20.20;62.30;;;;;;5145958;27;45419;-71
2023/05/25 05:48:51;;;;;;;5.05;1.92;;;20.10;62.20;;;;;;5150095;27;48511;-72
2023/05/25 05:51:18;;;;;;;3.47;1.73;;;20.10;62.10;;;;;;5147999;27;45670;-73
2023/05/25 05:53:46;;;;;;;3.60;1.60;;;20.10;62.20;;;;;;5150864;27;45358;-71
2023/05/25 05:56:17;;;;;;;3.42;1.67;;;20.20;62.30;;;;;;5149298;27;45279;-72
2023/05/25 05:58:46;;;;;;;4.07;1.73;;;20.10;62.20;;;;;;5149065;27;46259;-73
2023/05/25 06:01:13;;;;;;;2.65;1.80;;;20.10;62.10;;;;;;5150598;27;45374;-72
2023/05/25 06:03:39;;;;;;;3.55;1.70;;;20.10;62.20;;;;;;5157569;27;45347;-74
2023/05/25 06:06:06;;;;;;;4.55;1.70;;;20.10;62.20;;;;;;5149210;27;45478;-74
2023/05/25 06:08:33;;;;;;;4.40;1.90;;;20.10;62.30;;;;;;5152793;27;46337;-73
2023/05/25 06:11:01;;;;;;;2.83;1.60;;;20.10;62.20;;;;;;5155370;27;45376;-72
2023/05/25 06:13:28;;;;;;;3.15;1.58;;;20.10;62.30;;;;;;5157062;27;45436;-72
2023/05/25 06:15:55;;;;;;;4.47;1.60;;;20.20;62.40;;;;;;5158817;27;45508;-72
2023/05/25 06:18:21;;;;;;;2.47;1.38;;;20.20;62.50;;;;;;5163529;27;45523;-72
2023/05/25 06:20:48;;;;;;;5.80;1.77;;;20.10;62.40;;;;;;5160766;27;45340;-71
2023/05/25 06:23:17;;;;;;;3.53;1.70;;;20.10;62.50;;;;;;5159110;27;45366;-72
2023/05/25 06:25:44;;;;;;;4.30;1.70;;;20.10;62.50;;;;;;5155857;27;45581;-72
2023/05/25 06:28:12;;;;;;;3.15;1.55;;;20.10;62.50;;;;;;5165963;27;46480;-72
2023/05/25 06:30:39;;;;;;;2.60;1.70;;;20.20;62.70;;;;;;5152241;27;45476;-73
2023/05/25 06:33:07;;;;;;;4.03;1.67;;;20.10;62.70;;;;;;5155288;27;45352;-71
2023/05/25 06:35:34;;;;;;;4.65;2.20;;;20.20;62.70;;;;;;5156974;27;45351;-71
2023/05/25 06:38:00;;;;;;;4.53;2.00;;;20.10;62.60;;;;;;5163951;27;45446;-73
2023/05/25 06:40:27;;;;;;;3.28;1.88;;;20.20;62.80;;;;;;5160114;27;45292;-71
2023/05/25 06:42:54;;;;;;;3.95;1.73;;;20.20;62.90;;;;;;5165672;27;45275;-73
2023/05/25 06:45:22;;;;;;;3.72;1.65;;;20.20;62.80;;;;;;5169692;27;45351;-73
2023/05/25 06:47:49;;;;;;;1.90;1.42;;;20.20;62.80;;;;;;5158009;27;46521;-72
2023/05/25 06:50:16;;;;;;;2.60;1.67;;;20.20;62.80;;;;;;5166074;27;45300;-71
2023/05/25 06:52:43;;;;;;;5.75;1.88;;;20.20;62.80;;;;;;5156870;27;45380;-72
2023/05/25 06:55:11;;;;;;;3.90;1.67;;;20.20;62.90;;;;;;5163396;27;45400;-72
2023/05/25 06:57:37;;;;;;;3.95;1.80;;;20.20;62.90;;;;;;5154566;27;48403;-72
2023/05/25 07:00:07;;;;;;;4.97;2.10;;;20.20;62.90;;;;;;5157689;27;45207;-72
2023/05/25 07:02:35;;;;;;;5.25;1.80;;;20.20;63.10;;;;;;5156708;27;45613;-72
2023/05/25 07:05:03;;;;;;;3.88;2.00;;;20.20;62.90;;;;;;5165469;27;45611;-72
2023/05/25 07:07:30;;;;;;;5.60;1.67;;;20.20;62.90;;;;;;5154984;27;48561;-72
2023/05/25 07:09:57;;;;;;;3.80;1.90;;;20.20;62.90;;;;;;5164735;27;45590;-71
2023/05/25 07:12:23;;;;;;;4.45;1.90;;;20.20;62.90;;;;;;5162326;27;45402;-72
2023/05/25 07:14:50;;;;;;;3.88;1.70;;;20.20;63.00;;;;;;5160246;27;45270;-71
2023/05/25 07:17:17;;;;;;;4.43;1.77;;;20.20;62.90;;;;;;5161501;27;46278;-71
2023/05/25 07:19:45;;;;;;;3.60;1.70;;;20.20;62.90;;;;;;5160180;27;45514;-71
2023/05/25 07:22:12;;;;;;;2.88;1.50;;;20.20;63.00;;;;;;5164846;27;45320;-71
2023/05/25 07:24:39;;;;;;;4.78;1.73;;;20.20;62.90;;;;;;5160979;27;45422;-71
2023/05/25 07:27:07;;;;;;;4.00;1.42;;;20.20;62.90;;;;;;5163142;27;47430;-71
2023/05/25 07:29:33;;;;;;;2.67;1.80;;;20.20;63.00;;;;;;5155375;27;45578;-72
2023/05/25 07:32:00;;;;;;;4.45;1.90;;;20.20;62.90;;;;;;5154066;27;45260;-71
2023/05/25 07:34:27;;;;;;;3.55;1.70;;;20.20;62.90;;;;;;5166303;27;45300;-71
2023/05/25 07:36:55;;;;;;;2.88;1.40;;;20.20;62.80;;;;;;5164234;27;46587;-71
2023/05/25 07:39:22;;;;;;;5.97;2.10;;;20.20;62.80;;;;;;5165739;27;45325;-71
2023/05/25 07:41:49;;;;;;;3.65;1.70;;;20.20;62.90;;;;;;5156813;27;45273;-72
2023/05/25 07:44:16;;;;;;;5.35;1.77;;;20.20;62.90;;;;;;5165689;27;45420;-73
2023/05/25 07:46:42;;;;;;;2.67;1.80;;;20.20;63.00;;;;;;5159759;27;46640;-71
2023/05/25 07:49:12;;;;;;;4.82;1.55;;;20.20;62.90;;;;;;5165856;27;45274;-71
2023/05/25 07:51:39;;;;;;;3.60;1.58;;;20.20;62.80;;;;;;5158209;27;45337;-71
2023/05/25 07:54:07;;;;;;;4.25;1.77;;;20.30;64.00;;;;;;5161011;27;45258;-71
2023/05/25 07:56:33;;;;;;;4.40;1.55;;;20.20;62.80;;;;;;5157405;27;47320;-72
2023/05/25 07:59:00;;;;;;;4.80;1.75;;;20.30;62.90;;;;;;5165733;27;45630;-71
2023/05/25 08:01:27;;;;;;;3.65;1.58;;;20.30;62.80;;;;;;5153736;27;45468;-71
2023/05/25 08:03:54;;;;;;;4.20;1.77;;;20.30;62.80;;;;;;5166391;27;45253;-74
2023/05/25 08:06:21;;;;;;;2.88;1.60;;;20.30;62.70;;;;;;5161831;27;46382;-71
2023/05/25 08:08:48;;;;;;;3.85;1.90;;;20.30;62.60;;;;;;5168686;27;45945;-72
2023/05/25 08:11:17;;;;;;;5.05;1.63;;;20.30;62.60;;;;;;5165134;27;45371;-72
2023/05/25 08:13:44;;;;;;;4.50;1.60;;;20.20;62.50;;;;;;5162537;27;45319;-72
2023/05/25 08:16:11;;;;;;;2.80;1.80;;;20.20;62.30;;;;;;5162316;27;46474;-71
2023/05/25 08:18:38;;;;;;;3.80;1.45;;;20.20;62.40;;;;;;5166064;27;45425;-72
2023/05/25 08:21:05;;;;;;;2.90;1.70;;;20.20;62.40;;;;;;5159693;27;45348;-71
2023/05/25 08:23:31;;;;;;;4.75;1.85;;;20.20;62.40;;;;;;5167436;27;45244;-71
2023/05/25 08:25:58;;;;;;;3.17;1.73;;;20.30;62.60;;;;;;5159616;27;46762;-72
2023/05/25 08:28:26;;;;;;;2.17;1.30;;;20.30;62.70;;;;;;5168327;27;45407;-71
2023/05/25 08:30:53;;;;;;;4.63;1.60;;;20.30;62.40;;;;;;5159224;27;45484;-71
2023/05/25 08:33:20;;;;;;;4.97;1.48;;;20.30;62.40;;;;;;5168808;27;45481;-72
2023/05/25 08:35:49;;;;;;;1.85;1.38;;;20.30;62.40;;;;;;5160798;27;46342;-72
2023/05/25 08:38:15;;;;;;;3.83;1.90;;;20.30;62.30;;;;;;5165552;27;45358;-71
2023/05/25 08:40:43;;;;;;;3.00;1.38;;;20.30;62.20;;;;;;5159488;27;45353;-71
2023/05/25 08:43:10;;;;;;;4.53;1.70;;;20.30;62.10;;;;;;5168369;27;45496;-71
2023/05/25 08:45:38;;;;;;;4.55;1.83;;;20.30;62.10;;;;;;5167888;27;45328;-72
2023/05/25 08:48:11;;;;;;;3.50;1.60;;;20.30;62.00;;;;;;5167230;27;46415;-71
2023/05/25 08:50:40;;;;;;;4.93;1.80;;;20.30;62.00;;;;;;5163578;27;45461;-71
2023/05/25 08:53:11;;;;;;;3.17;1.60;;;20.30;62.00;;;;;;5155913;27;45503;-71
2023/05/25 08:55:40;;;;;;;3.47;1.65;;;20.30;62.00;;;;;;5167018;27;47537;-71
2023/05/25 08:58:14;;;;;;;3.75;1.95;;;20.30;61.80;;;;;;5158652;27;45360;-71
2023/05/25 09:00:46;;;;;;;4.30;1.42;;;20.30;61.70;;;;;;5159836;27;45484;-71
2023/05/25 09:03:17;;;;;;;3.63;1.35;;;20.30;61.90;;;;;;5154506;27;45291;-71
2023/05/25 09:05:44;;;;;;;2.58;1.30;;;20.30;61.90;;;;;;5161340;27;45742;-72
2023/05/25 09:08:11;;;;;;;3.15;1.50;;;20.30;61.80;;;;;;5167834;27;45377;-71
2023/05/25 09:10:38;;;;;;;4.20;1.60;;;20.30;61.70;;;;;;5157426;27;45351;-71
2023/05/25 09:13:05;;;;;;;3.05;1.20;;;20.30;61.70;;;;;;5156128;27;45612;-71
2023/05/25 09:15:32;;;;;;;4.32;1.70;;;20.30;61.60;;;;;;5166878;27;47552;-71
2023/05/25 09:18:01;;;;;;;3.25;1.27;;;20.30;62.60;;;;;;5157061;27;45329;-71
2023/05/25 09:20:30;;;;;;;4.07;1.48;;;20.30;61.50;;;;;;5158769;27;45440;-72
2023/05/25 09:22:58;;;;;;;4.22;1.42;;;20.30;61.40;;;;;;5166223;27;45360;-72
2023/05/25 09:25:26;;;;;;;1.50;1.40;;;20.30;61.50;;;;;;5152100;27;48567;-71
2023/05/25 09:27:53;;;;;;;2.90;1.45;;;20.30;61.40;;;;;;5161287;27;45580;-71
2023/05/25 09:30:20;;;;;;;3.20;1.65;;;20.30;61.40;;;;;;5163699;27;45358;-71
2023/05/25 09:32:47;;;;;;;3.13;1.40;;;20.30;61.20;;;;;;5167551;27;45591;-71
2023/05/25 09:35:15;;;;;;;3.10;1.58;;;20.30;61.30;;;;;;5167135;27;46382;-72
2023/05/25 09:37:43;;;;;;;3.53;1.23;;;20.30;61.40;;;;;;5164840;27;45419;-71
2023/05/25 09:40:10;;;;;;;3.08;1.15;;;20.30;61.30;;;;;;5167197;27;45474;-71
2023/05/25 09:42:38;;;;;;;2.85;1.33;;;20.30;61.20;;;;;;5160858;27;45535;-72
2023/05/25 09:45:06;;;;;;;2.92;1.27;;;20.30;61.30;;;;;;5151799;27;48322;-71
2023/05/25 09:47:32;;;;;;;1.98;1.10;;;20.40;61.40;;;;;;5159055;27;45296;-71
2023/05/25 09:50:00;;;;;;;2.35;1.00;;;20.30;61.40;;;;;;5164713;27;45310;-73
2023/05/25 09:52:28;;;;;;;2.10;1.10;;;20.40;61.40;;;;;;5160452;27;45581;-73
2023/05/25 09:54:57;;;;;;;3.80;1.33;;;20.40;61.20;;;;;;5157965;27;47089;-71
2023/05/25 09:57:24;;;;;;;2.65;1.35;;;20.40;61.20;;;;;;5164093;27;45243;-71
2023/05/25 09:59:52;;;;;;;2.95;1.20;;;20.30;60.90;;;;;;5160304;27;45289;-71
2023/05/25 10:02:19;;;;;;;2.90;1.30;;;20.30;60.80;;;;;;5167348;27;45573;-71
2023/05/25 10:04:46;;;;;;;4.35;1.88;;;20.30;60.80;;;;;;5159727;27;46707;-72
2023/05/25 10:07:14;;;;;;;4.10;1.58;;;20.30;60.90;;;;;;5167932;27;45343;-71
2023/05/25 10:09:45;;;;;;;3.38;1.30;;;20.30;60.80;;;;;;5163828;27;45371;-72
2023/05/25 10:12:17;;;;;;;3.17;1.60;;;20.30;60.80;;;;;;5166320;27;45379;-71
2023/05/25 10:14:45;;;;;;;1.58;1.17;;;20.40;61.00;;;;;;5163626;27;46295;-71
2023/05/25 10:17:17;;;;;;;4.47;1.60;;;20.40;61.00;;;;;;5159380;27;45220;-71
2023/05/25 10:19:50;;;;;;;2.70;1.10;;;20.40;61.00;;;;;;5159874;27;45524;-73
2023/05/25 10:22:20;;;;;;;2.60;1.25;;;20.40;60.90;;;;;;5155110;27;45698;-72
2023/05/25 10:24:54;;;;;;;4.70;1.40;;;20.40;60.80;;;;;;5168333;27;45640;-75
2023/05/25 10:27:24;;;;;;;3.08;1.33;;;20.40;61.00;;;;;;5169864;27;45214;-73
2023/05/25 10:29:52;;;;;;;3.45;1.35;;;20.40;60.80;;;;;;5157413;27;45426;-72
2023/05/25 10:32:19;;;;;;;4.07;1.65;;;20.40;60.50;;;;;;5167577;27;45454;-74
2023/05/25 10:34:47;;;;;;;3.13;1.60;;;20.40;60.50;;;;;;5165658;27;46570;-74
2023/05/25 10:37:15;;;;;;;2.70;1.27;;;20.40;60.50;;;;;;5158020;27;45522;-72
2023/05/25 10:39:43;;;;;;;2.00;1.17;;;20.40;60.50;;;;;;5169751;27;45213;-74
2023/05/25 10:42:12;;;;;;;3.80;1.63;;;20.40;60.50;;;;;;5169705;27;45198;-74
2023/05/25 10:44:40;;;;;;;3.50;1.52;;;20.40;60.50;;;;;;5154500;27;47384;-75
2023/05/25 10:47:08;;;;;;;3.50;1.55;;;20.40;60.50;;;;;;5152217;27;45298;-73
2023/05/25 10:49:52;;;;;;;3.97;1.35;;;20.50;60.40;;;;;;5163175;27;45642;-74
2023/05/25 10:52:19;;;;;;;2.80;1.48;;;20.50;60.20;;;;;;5169104;27;45596;-74
2023/05/25 10:54:47;;;;;;;2.28;1.60;;;20.50;60.10;;;;;;5167349;27;46777;-73
2023/05/25 10:57:19;;;;;;;3.50;1.83;;;20.50;60.90;;;;;;5162032;27;46164;-72
2023/05/25 10:59:50;;;;;;;3.65;1.70;;;20.50;60.00;;;;;;5156833;27;45467;-72
2023/05/25 11:02:21;;;;;;;3.13;2.10;;;20.50;59.90;;;;;;5151456;27;45479;-71
2023/05/25 11:04:49;;;;;;;5.30;2.20;;;20.50;60.90;;;;;;5147934;27;47598;-73
2023/05/25 11:07:18;;;;;;;4.70;2.45;;;20.50;60.00;;;;;;5150543;27;45484;-71
2023/05/25 11:09:58;;;;;;;68.82;5.80;;;20.50;60.00;;;;;;5162982;27;45449;-72
2023/05/25 11:12:26;;;;;;;23.95;3.97;;;20.60;61.10;;;;;;5167007;27;45264;-74
2023/05/25 11:15:14;;;;;;;19.73;4.57;;;20.60;60.90;;;;;;5159190;27;48344;-72
2023/05/25 11:18:00;;;;;;;20.45;2.80;;;20.60;60.40;;;;;;5157324;27;46370;-73
2023/05/25 11:20:28;;;;;;;21.17;2.80;;;20.50;60.40;;;;;;5157961;27;45364;-73
2023/05/25 11:22:57;;;;;;;9.35;2.40;;;20.50;60.30;;;;;;5164808;27;45273;-72
2023/05/25 11:25:38;;;;;;;11.18;2.35;;;20.50;60.40;;;;;;5158100;27;45263;-72
2023/05/25 11:28:10;;;;;;;6.80;2.20;;;20.50;60.50;;;;;;5154799;27;45426;-72
2023/05/25 11:30:38;;;;;;;5.82;2.00;;;20.50;60.60;;;;;;5160387;27;45402;-72
2023/05/25 11:33:06;;;;;;;5.93;1.90;;;20.50;60.60;;;;;;5163635;27;45300;-72
2023/05/25 11:35:35;;;;;;;6.82;2.22;;;20.50;60.50;;;;;;5160375;27;47430;-71
2023/05/25 11:38:05;;;;;;;4.75;2.08;;;20.50;60.50;;;;;;5162738;27;45873;-72
2023/05/25 11:40:32;;;;;;;6.20;2.22;;;20.40;60.50;;;;;;5165715;27;45282;-72
2023/05/25 11:43:00;;;;;;;6.30;1.90;;;20.40;60.30;;;;;;5165052;27;45330;-71
2023/05/25 11:45:30;;;;;;;6.07;2.13;;;20.40;60.30;;;;;;5155970;27;46701;-71
2023/05/25 11:47:57;;;;;;;2.80;1.70;;;20.40;60.30;;;;;;5157832;27;45389;-73
2023/05/25 11:50:25;;;;;;;4.18;2.05;;;20.50;60.30;;;;;;5158162;27;45479;-71
2023/05/25 11:52:52;;;;;;;3.35;2.03;;;20.40;60.30;;;;;;5154864;27;45490;-71
2023/05/25 11:55:20;;;;;;;4.63;1.85;;;20.50;60.50;;;;;;5162065;27;47256;-74
2023/05/25 11:57:47;;;;;;;3.75;2.17;;;20.40;60.30;;;;;;5168121;27;45881;-74
2023/05/25 12:00:25;;;;;;;3.88;2.08;;;20.40;60.30;;;;;;5162671;27;45283;-73
2023/05/25 12:02:53;;;;;;;4.30;2.20;;;20.40;60.30;;;;;;5164603;27;45263;-74
2023/05/25 12:05:20;;;;;;;3.03;1.70;;;20.40;60.10;;;;;;5159888;27;46613;-73
2023/05/25 12:07:46;;;;;;;3.03;1.98;;;20.40;60.20;;;;;;5155876;27;45337;-74
2023/05/25 12:10:15;;;;;;;3.75;2.05;;;20.40;60.30;;;;;;5167091;27;45338;-74
2023/05/25 12:12:43;;;;;;;2.90;2.10;;;20.50;60.40;;;;;;5151107;27;45290;-73
2023/05/25 12:15:11;;;;;;;4.05;1.88;;;20.40;60.40;;;;;;5157518;27;47554;-73
2023/05/25 12:17:41;;;;;;;4.57;1.92;;;20.40;60.60;;;;;;5165451;27;45697;-73
2023/05/25 12:20:11;;;;;;;5.03;1.85;;;20.40;60.40;;;;;;5166023;27;45318;-73
2023/05/25 12:22:39;;;;;;;3.67;1.70;;;20.40;60.40;;;;;;5167108;27;45285;-73
2023/05/25 12:25:07;;;;;;;3.40;2.05;;;20.40;60.20;;;;;;5156121;27;46316;-72
2023/05/25 12:27:34;;;;;;;3.28;2.08;;;20.40;60.30;;;;;;5152192;27;45390;-73
2023/05/25 12:30:01;;;;;;;6.30;2.00;;;20.40;60.40;;;;;;5165420;27;45448;-73
2023/05/25 12:32:28;;;;;;;3.75;2.03;;;20.40;60.40;;;;;;5163428;27;45570;-72
2023/05/25 12:35:03;;;;;;;3.28;1.80;;;20.40;60.20;;;;;;5164680;27;45514;-72
2023/05/25 12:37:31;;;;;;;4.75;1.65;;;20.40;60.20;;;;;;5165235;27;45457;-73
2023/05/25 12:39:58;;;;;;;3.75;2.00;;;20.40;60.30;;;;;;5171124;27;45499;-73
2023/05/25 12:42:26;;;;;;;4.50;2.03;;;20.50;60.30;;;;;;5166913;27;45182;-72
2023/05/25 12:44:57;;;;;;;3.90;1.48;;;20.40;60.30;;;;;;5162939;27;47346;-72
2023/05/25 12:47:27;;;;;;;1.83;1.65;;;20.40;60.30;;;;;;5166392;27;45321;-72
2023/05/25 12:50:10;;;;;;;2.97;1.60;;;20.40;60.40;;;;;;5168197;27;45328;-73